Time;durP1;ratioP1;P1;durP2;ratioP2;P2;SDS_P1;SDS_P2;PMS_P1;PMS_P2;Temp;Humidity;BMP_temperature;BMP_pressure;BME280_temperature;BME280_humidity;BME280_pressure;Samples;Min_cycle;Max_cycle;Signal;HPM_P1;HPM_P2
2023/07/10 00:01:46;;;;;;;8.53;2.87;;;;;;;19.03;100.00;101857.44;4995715;28;20274;-96
2023/07/10 00:04:43;;;;;;;8.43;2.92;;;;;;;18.88;100.00;101842.13;4994576;28;20045;-96
2023/07/10 00:07:42;;;;;;;9.15;2.78;;;;;;;18.79;100.00;101844.66;4995586;28;20015;-96
2023/07/10 00:10:12;;;;;;;9.98;2.97;;;;;;;18.92;100.00;101870.28;4992852;28;20046;-96
2023/07/10 00:12:40;;;;;;;8.07;2.80;;;;;;;18.79;100.00;101850.09;4994093;28;20038;-96
2023/07/10 00:15:30;;;;;;;7.13;2.92;;;;;;;19.07;100.00;101893.78;4978309;28;20110;-96
2023/07/10 00:18:20;;;;;;;6.65;2.92;;;;;;;18.87;100.00;101845.94;4995157;28;20560;-96
2023/07/10 00:20:47;;;;;;;8.35;2.50;;;;;;;18.96;100.00;101848.84;4996208;28;20035;-96
2023/07/10 00:23:15;;;;;;;6.05;2.80;;;;;;;18.96;100.00;101860.50;4993211;28;20117;-96
2023/07/10 00:25:42;;;;;;;7.03;2.77;;;;;;;19.26;100.00;101898.47;4976458;28;20434;-96
2023/07/10 00:28:23;;;;;;;5.90;2.63;;;;;;;19.18;100.00;101906.13;4991363;28;20290;-96
2023/07/10 00:33:26;;;;;;;7.00;2.83;;;;;;;18.21;100.00;101862.59;5258897;23;20054;-96
2023/07/10 00:35:52;;;;;;;6.90;3.10;;;;;;;18.09;100.00;101881.94;4998290;28;20057;-96
2023/07/10 00:38:23;;;;;;;8.80;3.03;;;;;;;17.85;100.00;101888.03;4998888;28;20041;-95
2023/07/10 00:40:49;;;;;;;11.60;3.38;;;;;;;17.60;100.00;101875.47;5010235;28;20107;-96
2023/07/10 00:43:49;;;;;;;8.07;3.03;;;;;;;17.48;100.00;101877.72;5012233;28;20027;-96
2023/07/10 00:46:34;;;;;;;8.85;3.13;;;;;;;17.08;100.00;101856.75;5013043;28;20038;-96
2023/07/10 00:49:21;;;;;;;6.10;3.17;;;;;;;16.85;100.00;101836.50;5013636;28;20050;-96
2023/07/10 00:58:16;;;;;;;5.27;2.90;;;;;;;16.87;100.00;101863.28;5424972;23;20055;-96
2023/07/10 11:42:17;;;;;;;8.77;2.60;;;;;;;29.83;36.35;102011.59;5775965;23;20298;-96
2023/07/10 16:07:04;;;;;;;3.50;2.40;;;;;;;34.95;26.15;101832.78;4975628;28;20118;-96
2023/07/10 16:09:29;;;;;;;4.20;2.83;;;;;;;35.18;24.76;101823.91;4992656;28;20023;-96
2023/07/10 16:14:34;;;;;;;4.57;2.28;;;;;;;34.46;25.51;101788.81;5352837;23;20043;-96
2023/07/10 16:16:59;;;;;;;5.28;2.30;;;;;;;34.32;26.27;101803.50;4989381;28;20029;-96
2023/07/10 16:19:25;;;;;;;7.13;2.50;;;;;;;33.81;26.39;101814.63;4986795;28;20090;-96
2023/07/10 16:21:51;;;;;;;3.42;2.80;;;;;;;33.98;26.16;101801.94;4990835;28;20391;-96
2023/07/10 16:24:18;;;;;;;4.13;2.50;;;;;;;33.84;26.72;101782.44;4985062;28;20311;-96
2023/07/10 16:26:45;;;;;;;3.43;2.50;;;;;;;34.12;25.89;101801.13;4983388;28;20046;-96
2023/07/10 16:29:13;;;;;;;3.92;2.47;;;;;;;34.34;25.63;101772.50;4985416;28;20035;-96
2023/07/10 16:31:40;;;;;;;3.70;2.78;;;;;;;34.12;25.62;101780.88;4987074;28;20027;-96
2023/07/10 16:34:17;;;;;;;5.88;2.90;;;;;;;34.11;26.63;101774.53;4990054;28;20011;-96
2023/07/10 16:36:47;;;;;;;2.58;2.08;;;;;;;34.32;26.07;101763.78;4988145;28;20023;-96
2023/07/10 16:39:13;;;;;;;3.20;2.60;;;;;;;34.78;26.71;101751.72;4988804;28;20026;-96
2023/07/10 16:41:40;;;;;;;3.40;2.80;;;;;;;34.91;25.39;101752.06;4988380;28;20018;-96
2023/07/10 16:44:11;;;;;;;4.65;2.88;;;;;;;34.38;25.92;101771.31;4986890;28;20038;-96
2023/07/10 16:46:37;;;;;;;3.00;2.63;;;;;;;34.37;27.01;101763.34;4984065;28;20035;-96
2023/07/10 16:49:03;;;;;;;7.47;3.13;;;;;;;33.95;26.40;101754.69;4988612;28;20069;-96
2023/07/10 16:51:34;;;;;;;5.28;2.95;;;;;;;33.60;27.11;101767.38;4991856;28;20018;-96
2023/07/10 16:54:02;;;;;;;4.17;2.80;;;;;;;33.20;27.38;101767.28;4972599;28;20043;-95
2023/07/10 16:56:29;;;;;;;3.03;2.60;;;;;;;33.36;27.71;101783.59;4994611;28;20285;-96
2023/07/10 16:58:55;;;;;;;4.55;2.83;;;;;;;33.56;26.99;101792.38;4988079;28;20102;-96
2023/07/10 17:01:22;;;;;;;4.88;2.40;;;;;;;33.42;27.25;101778.44;4988538;28;20033;-96
2023/07/10 17:03:49;;;;;;;5.07;3.03;;;;;;;32.94;26.75;101755.28;4998185;28;20074;-96
2023/07/10 17:06:25;;;;;;;4.20;2.80;;;;;;;33.20;27.41;101742.28;4987904;28;20026;-96
2023/07/10 17:08:59;;;;;;;3.60;2.37;;;;;;;33.05;28.03;101747.78;4988009;28;20027;-96
2023/07/10 17:11:33;;;;;;;4.70;2.80;;;;;;;33.15;27.66;101751.00;4988692;28;20726;-96
2023/07/10 17:13:59;;;;;;;5.60;2.72;;;;;;;32.91;27.83;101748.56;4984478;28;20050;-96
2023/07/10 17:16:25;;;;;;;4.55;2.70;;;;;;;33.01;28.32;101749.78;4986985;28;20030;-96
2023/07/10 17:18:51;;;;;;;6.20;2.67;;;;;;;33.08;28.13;101743.44;4987090;28;20027;-96
2023/07/10 17:21:18;;;;;;;4.73;2.77;;;;;;;33.21;28.05;101760.53;4983055;28;20479;-96
2023/07/10 17:23:45;;;;;;;3.55;2.65;;;;;;;32.97;28.47;101754.50;4984168;28;20031;-96
2023/07/10 17:26:19;;;;;;;3.63;2.60;;;;;;;32.34;28.93;101724.06;4964298;28;20031;-96
2023/07/10 17:28:45;;;;;;;5.03;2.25;;;;;;;32.57;29.23;101762.66;4978802;28;20039;-96
2023/07/10 17:31:34;;;;;;;4.30;2.50;;;;;;;32.01;29.58;101728.59;4964230;28;20042;-96
2023/07/10 17:34:01;;;;;;;4.83;2.87;;;;;;;31.99;30.18;101731.75;4981447;28;20027;-96
2023/07/10 17:36:28;;;;;;;2.60;2.40;;;;;;;31.83;29.51;101740.34;4980511;28;20033;-96
2023/07/10 17:39:28;;;;;;;5.80;2.45;;;;;;;32.18;30.23;101743.75;4980033;28;20070;-96
2023/07/10 17:41:54;;;;;;;3.90;2.78;;;;;;;31.34;30.71;101722.06;4982230;28;20019;-96
2023/07/10 17:44:21;;;;;;;4.22;2.17;;;;;;;31.28;31.18;101743.78;4985450;28;20026;-96
2023/07/10 17:46:47;;;;;;;4.82;2.58;;;;;;;30.82;31.18;101706.88;4981988;28;20023;-95
2023/07/10 17:49:13;;;;;;;5.87;2.80;;;;;;;30.82;31.72;101736.50;4985046;28;20026;-96
2023/07/10 17:51:38;;;;;;;5.70;2.70;;;;;;;30.54;32.96;101723.88;4991723;28;20021;-96
2023/07/10 17:54:18;;;;;;;4.33;2.73;;;;;;;30.20;32.69;101724.59;4995114;28;20026;-96
2023/07/10 17:56:43;;;;;;;4.28;2.60;;;;;;;30.17;33.16;101738.34;4979038;28;20030;-96
2023/07/10 18:07:27;;;;;;;5.63;2.13;;;;;;;29.76;34.59;101734.13;5236131;23;20054;-95
2023/07/10 18:09:52;;;;;;;4.15;2.17;;;;;;;29.72;35.14;101726.94;4992556;28;20118;-95
2023/07/10 18:12:24;;;;;;;6.03;2.00;;;;;;;29.65;35.26;101729.59;4995570;28;20034;-94
2023/07/10 18:14:49;;;;;;;7.05;2.17;;;;;;;29.49;36.56;101738.00;4988510;28;20090;-96
2023/07/10 18:17:21;;;;;;;6.40;2.13;;;;;;;29.27;35.28;101732.03;4993608;28;20023;-96
2023/07/10 18:19:49;;;;;;;5.10;2.40;;;;;;;29.09;35.74;101738.00;4976182;28;20034;-95
2023/07/10 18:22:16;;;;;;;5.65;2.58;;;;;;;29.04;36.01;101741.06;4984544;28;20038;-95
2023/07/10 18:24:42;;;;;;;4.80;2.05;;;;;;;28.94;36.21;101744.41;4982413;28;20486;-95
2023/07/10 18:27:20;;;;;;;3.53;2.23;;;;;;;28.82;36.89;101735.13;4973707;28;20031;-94
2023/07/10 18:29:46;;;;;;;4.83;2.57;;;;;;;28.44;35.95;101725.63;4974367;28;20306;-94
2023/07/10 18:32:18;;;;;;;5.18;2.10;;;;;;;28.13;36.62;101710.72;4974772;28;20041;-94
2023/07/10 18:34:47;;;;;;;6.75;2.30;;;;;;;28.09;37.31;101726.38;4976121;28;20035;-95
2023/07/10 18:37:14;;;;;;;4.63;2.53;;;;;;;28.12;38.17;101731.16;4974605;28;20049;-95
2023/07/10 18:39:41;;;;;;;4.78;2.28;;;;;;;28.06;39.88;101721.56;4976741;28;20023;-95
2023/07/10 18:42:33;;;;;;;4.03;2.05;;;;;;;28.09;38.62;101721.63;4976842;28;20074;-95
2023/07/10 18:45:00;;;;;;;5.28;2.22;;;;;;;28.03;38.63;101716.75;4976692;28;20058;-95
2023/07/10 18:47:26;;;;;;;3.72;2.17;;;;;;;27.68;38.92;101714.72;4943565;28;20041;-95
2023/07/10 18:49:51;;;;;;;5.20;1.95;;;;;;;27.39;39.63;101703.75;4976678;28;20099;-95
2023/07/10 18:52:23;;;;;;;6.63;2.13;;;;;;;27.28;40.13;101719.97;4977201;28;20051;-94
2023/07/10 18:54:49;;;;;;;6.30;2.25;;;;;;;27.11;40.97;101709.28;4975784;28;20027;-95
2023/07/10 18:57:15;;;;;;;4.50;1.93;;;;;;;26.92;40.78;101705.22;4975689;28;20034;-95
2023/07/10 18:59:41;;;;;;;7.75;2.05;;;;;;;26.75;41.92;101692.53;4975855;28;20494;-94
2023/07/10 19:02:08;;;;;;;6.85;2.30;;;;;;;26.93;42.22;101706.81;4975660;28;20023;-96
2023/07/10 19:04:34;;;;;;;3.40;2.00;;;;;;;26.84;42.18;101695.19;4975884;28;20031;-95
2023/07/10 19:06:59;;;;;;;4.33;2.20;;;;;;;26.78;43.24;101699.28;4975815;28;20553;-94
2023/07/10 19:09:28;;;;;;;3.37;1.97;;;;;;;26.78;43.03;101702.03;4975728;28;20475;-95
2023/07/10 19:11:55;;;;;;;4.35;2.30;;;;;;;26.65;42.91;101690.28;4976808;28;20478;-95
2023/07/10 19:14:23;;;;;;;5.65;2.10;;;;;;;26.52;43.08;101697.75;4978796;28;20027;-96
2023/07/10 19:16:51;;;;;;;4.80;2.05;;;;;;;26.45;43.49;101695.56;4978708;28;20026;-94
2023/07/10 19:19:24;;;;;;;3.95;1.90;;;;;;;26.38;44.21;101687.94;4979525;28;20023;-94
2023/07/10 19:21:51;;;;;;;6.55;2.22;;;;;;;26.32;44.73;101694.00;4979119;28;20055;-95
2023/07/10 19:24:24;;;;;;;4.65;1.95;;;;;;;26.03;44.61;101677.41;4961915;28;20446;-95
2023/07/10 19:26:49;;;;;;;4.85;2.33;;;;;;;25.94;44.77;101684.94;4978984;28;20062;-95
2023/07/10 19:29:15;;;;;;;5.70;2.00;;;;;;;25.83;44.68;101679.91;4978803;28;20023;-95
2023/07/10 19:31:45;;;;;;;6.07;2.40;;;;;;;25.70;45.81;101675.56;4979066;28;20054;-95
2023/07/10 19:34:18;;;;;;;5.40;2.20;;;;;;;25.68;45.19;101678.63;4991651;28;20014;-95
2023/07/10 19:36:43;;;;;;;3.40;2.17;;;;;;;25.55;46.44;101679.75;4986559;28;20045;-94
2023/07/10 19:39:24;;;;;;;5.70;2.10;;;;;;;25.42;45.77;101676.19;4978235;28;20102;-95
2023/07/10 19:41:50;;;;;;;3.03;2.05;;;;;;;25.20;47.67;101658.16;4996124;28;20034;-95
2023/07/10 19:44:21;;;;;;;4.20;2.10;;;;;;;25.08;48.33;101669.88;4977030;28;20026;-94
2023/07/10 19:46:47;;;;;;;5.30;2.50;;;;;;;25.06;48.35;101666.69;4976321;28;20027;-95
2023/07/10 19:49:14;;;;;;;4.63;2.08;;;;;;;25.01;48.66;101675.91;4976074;28;20041;-95
2023/07/10 19:57:27;;;;;;;4.47;2.15;;;;;;;24.57;49.95;101648.03;5156707;23;20054;-94
2023/07/10 19:59:52;;;;;;;5.10;2.22;;;;;;;24.55;52.27;101667.56;4977285;28;20039;-95
2023/07/10 20:02:17;;;;;;;5.10;2.10;;;;;;;24.42;52.42;101668.63;4978212;28;20022;-94
2023/07/10 20:04:43;;;;;;;7.90;2.10;;;;;;;24.28;52.76;101666.94;4977990;28;20031;-95
2023/07/10 20:07:10;;;;;;;6.13;2.00;;;;;;;24.16;54.02;101672.31;4976830;28;20019;-95
2023/07/10 20:09:36;;;;;;;4.90;2.00;;;;;;;24.16;55.09;101673.13;4977748;28;20101;-94
2023/07/10 20:12:02;;;;;;;3.67;1.90;;;;;;;24.07;55.42;101669.63;4976980;28;20030;-95
2023/07/10 20:14:28;;;;;;;4.18;2.55;;;;;;;23.90;56.41;101660.34;4977395;28;20026;-95
2023/07/10 20:16:54;;;;;;;8.63;2.50;;;;;;;23.79;56.22;101661.03;4976632;28;20054;-94
2023/07/10 20:19:22;;;;;;;7.75;2.58;;;;;;;23.73;57.32;101663.16;4976825;28;20035;-95
2023/07/10 20:21:52;;;;;;;4.78;2.10;;;;;;;23.68;57.81;101658.66;4976438;28;20063;-94
2023/07/10 20:24:19;;;;;;;4.05;2.45;;;;;;;23.59;57.81;101650.50;4975616;28;20030;-95
2023/07/10 20:26:45;;;;;;;5.18;2.25;;;;;;;23.60;57.88;101656.75;4975839;28;20027;-94
2023/07/10 20:29:20;;;;;;;4.85;2.40;;;;;;;23.50;57.36;101644.22;4980082;28;20046;-94
2023/07/10 20:31:47;;;;;;;6.00;2.47;;;;;;;23.42;58.66;101650.53;4987482;28;20033;-94
2023/07/10 20:34:14;;;;;;;6.23;2.87;;;;;;;23.44;59.13;101648.28;4981034;28;20305;-94
2023/07/10 20:36:41;;;;;;;4.03;2.30;;;;;;;23.31;59.00;101638.31;4983779;28;20089;-94
2023/07/10 20:39:13;;;;;;;6.85;2.95;;;;;;;23.27;59.60;101649.94;4979532;28;20034;-93
2023/07/10 20:41:39;;;;;;;6.30;2.60;;;;;;;23.12;59.47;101629.34;4978095;28;20042;-94
2023/07/10 20:44:15;;;;;;;7.90;2.92;;;;;;;23.12;59.94;101645.75;4979561;28;20031;-95
2023/07/10 20:46:50;;;;;;;4.07;2.42;;;;;;;23.10;60.65;101644.44;4980109;28;20109;-95
2023/07/10 20:49:17;;;;;;;6.25;2.92;;;;;;;22.93;62.13;101634.34;4977928;28;20030;-94
2023/07/10 20:51:43;;;;;;;6.22;2.80;;;;;;;22.85;63.16;101644.16;4976345;28;20488;-95
2023/07/10 20:54:11;;;;;;;7.23;2.80;;;;;;;22.79;62.66;101645.44;4997627;28;20055;-94
2023/07/10 20:56:38;;;;;;;4.95;2.65;;;;;;;22.74;62.34;101640.13;4974984;28;20061;-95
2023/07/10 20:59:24;;;;;;;7.03;2.50;;;;;;;22.67;61.76;101643.34;4985794;28;20018;-93
2023/07/10 21:01:50;;;;;;;4.38;2.70;;;;;;;22.58;63.29;101635.16;4985638;28;20554;-94
2023/07/10 21:04:18;;;;;;;5.72;2.80;;;;;;;22.47;64.14;101625.66;4976472;28;20110;-95
2023/07/10 21:06:44;;;;;;;4.90;2.78;;;;;;;22.43;66.02;101628.25;4975285;28;20019;-96
2023/07/10 21:09:26;;;;;;;5.88;2.70;;;;;;;22.34;64.19;101619.19;4975992;28;20081;-95
2023/07/10 21:11:52;;;;;;;5.47;2.90;;;;;;;22.23;65.54;101624.97;4975150;28;20054;-95
2023/07/10 21:14:18;;;;;;;6.77;2.90;;;;;;;22.24;65.72;101629.31;4975785;28;20073;-93
2023/07/10 21:16:43;;;;;;;5.03;2.73;;;;;;;22.11;66.06;101621.25;4977703;28;20702;-93
2023/07/10 21:19:23;;;;;;;5.43;2.50;;;;;;;22.25;66.11;101635.56;4976625;28;20111;-94
2023/07/10 21:21:49;;;;;;;5.40;2.70;;;;;;;22.10;66.50;101631.34;4975087;28;20027;-93
2023/07/10 21:24:17;;;;;;;6.13;2.50;;;;;;;22.07;66.97;101632.00;4975580;28;20097;-94
2023/07/10 21:26:50;;;;;;;5.82;2.67;;;;;;;21.91;66.97;101621.50;4976394;28;20074;-93
2023/07/10 21:29:15;;;;;;;7.38;2.50;;;;;;;21.90;67.26;101611.72;4976601;28;20027;-93
2023/07/10 21:31:42;;;;;;;5.78;3.00;;;;;;;21.94;67.74;101620.88;4976338;28;20031;-93
2023/07/10 21:34:13;;;;;;;5.22;2.50;;;;;;;21.96;67.03;101627.94;4977155;28;20027;-93
2023/07/10 21:36:39;;;;;;;8.60;2.90;;;;;;;21.86;67.59;101629.03;4982372;28;20031;-93
2023/07/10 21:39:05;;;;;;;10.47;2.60;;;;;;;21.73;68.42;101617.09;4991435;28;20288;-93
2023/07/10 21:41:34;;;;;;;4.80;2.45;;;;;;;21.70;69.11;101629.44;4987311;28;20039;-94
2023/07/10 21:44:05;;;;;;;4.68;2.75;;;;;;;21.60;68.85;101627.81;4995882;28;20031;-93
2023/07/10 21:46:32;;;;;;;4.88;2.55;;;;;;;21.59;69.35;101630.81;4997546;28;20014;-93
2023/07/10 21:48:58;;;;;;;3.83;2.50;;;;;;;21.43;70.18;101625.78;4996750;28;20062;-93
2023/07/10 21:51:26;;;;;;;7.60;2.90;;;;;;;21.41;70.28;101624.47;4979617;28;20031;-94
2023/07/10 21:53:51;;;;;;;7.13;2.70;;;;;;;21.33;70.57;101615.94;4976386;28;20030;-94
2023/07/10 21:56:17;;;;;;;6.77;2.63;;;;;;;21.31;70.76;101626.34;4979469;28;20042;-94
2023/07/10 21:58:45;;;;;;;4.93;2.40;;;;;;;21.24;70.75;101615.06;4990233;28;20019;-94
2023/07/10 22:01:12;;;;;;;7.25;3.00;;;;;;;21.12;71.51;101614.84;4990152;28;20019;-93
2023/07/10 22:03:39;;;;;;;5.50;3.08;;;;;;;21.14;71.83;101615.34;4994025;28;20057;-93
2023/07/10 22:06:06;;;;;;;7.90;2.60;;;;;;;21.03;71.96;101618.31;4992770;28;20042;-94
2023/07/10 22:08:32;;;;;;;5.93;2.63;;;;;;;20.99;72.06;101617.34;4990768;28;20081;-93
2023/07/10 22:11:00;;;;;;;8.32;3.13;;;;;;;20.98;72.27;101620.34;4996118;28;20033;-93
2023/07/10 22:13:32;;;;;;;8.45;2.80;;;;;;;20.96;72.63;101622.59;4997778;28;20027;-93
2023/07/10 22:16:00;;;;;;;7.20;2.63;;;;;;;20.82;72.86;101615.28;4992718;28;20054;-94
2023/07/10 22:18:33;;;;;;;5.07;2.60;;;;;;;20.85;72.69;101611.13;4998035;28;20030;-94
2023/07/10 22:21:00;;;;;;;5.40;2.80;;;;;;;20.78;73.30;101603.38;4997781;28;20266;-93
2023/07/10 22:23:28;;;;;;;7.05;2.95;;;;;;;20.74;73.43;101610.53;4997471;28;20015;-94
2023/07/10 22:25:56;;;;;;;5.15;2.95;;;;;;;20.63;74.48;101601.81;4997689;28;20098;-93
2023/07/10 22:31:34;;;;;;;6.18;2.70;;;;;;;20.73;74.48;101607.00;5171575;23;20078;-93
2023/07/10 22:33:59;;;;;;;6.03;3.23;;;;;;;20.61;74.95;101606.75;4994362;28;20031;-93
2023/07/10 22:36:25;;;;;;;6.20;2.90;;;;;;;20.55;75.20;101597.88;4993449;28;20027;-93
2023/07/10 22:38:52;;;;;;;5.87;2.60;;;;;;;20.48;75.52;101607.59;4989956;28;20088;-94
2023/07/10 22:41:26;;;;;;;5.28;2.83;;;;;;;20.46;75.66;101605.19;4987040;28;20086;-93
2023/07/10 22:43:59;;;;;;;6.33;2.67;;;;;;;20.36;76.18;101599.97;4985742;28;20055;-93
2023/07/10 22:46:28;;;;;;;4.90;2.90;;;;;;;20.21;76.66;101577.41;4979042;28;20305;-93
2023/07/10 22:48:55;;;;;;;7.05;2.90;;;;;;;20.23;77.07;101582.56;4982261;28;20062;-93
2023/07/10 22:51:24;;;;;;;5.05;2.70;;;;;;;20.25;77.81;101586.56;4980945;28;20031;-93
2023/07/10 22:53:49;;;;;;;6.43;2.83;;;;;;;20.22;77.23;101579.00;4983261;28;20034;-93
2023/07/10 22:56:17;;;;;;;4.73;2.87;;;;;;;20.23;77.64;101585.28;4981911;28;20039;-92
2023/07/10 22:58:43;;;;;;;7.25;2.75;;;;;;;20.23;77.70;101585.28;4982132;28;20039;-93
2023/07/10 23:01:09;;;;;;;6.35;2.88;;;;;;;20.21;76.82;101576.63;4982603;28;20091;-93
2023/07/10 23:03:35;;;;;;;6.80;2.75;;;;;;;20.08;77.56;101562.75;4983216;28;20177;-93
2023/07/10 23:06:02;;;;;;;8.55;2.88;;;;;;;20.13;78.58;101576.22;4984866;28;20029;-93
2023/07/10 23:08:29;;;;;;;5.43;2.63;;;;;;;20.13;78.85;101576.22;4996047;28;20019;-92
2023/07/10 23:10:55;;;;;;;5.72;2.60;;;;;;;20.16;78.27;101574.81;4992181;28;20027;-92
2023/07/10 23:13:20;;;;;;;3.53;2.60;;;;;;;20.11;77.64;101562.09;4985607;28;20162;-93
2023/07/10 23:15:45;;;;;;;9.93;3.00;;;;;;;20.05;77.63;101557.91;4991359;28;20130;-92
2023/07/10 23:18:11;;;;;;;8.23;2.77;;;;;;;20.06;78.85;101570.41;4982769;28;20027;-92
2023/07/10 23:20:36;;;;;;;9.38;2.78;;;;;;;20.06;78.78;101555.97;4992183;28;20038;-93
2023/07/10 23:23:02;;;;;;;7.70;2.83;;;;;;;20.04;78.43;101559.00;4997249;28;20047;-92
2023/07/10 23:25:27;;;;;;;4.70;2.20;;;;;;;19.99;78.81;101548.22;4997463;28;20082;-93
2023/07/10 23:27:52;;;;;;;6.83;2.70;;;;;;;19.90;79.28;101544.63;4988425;28;20038;-92
2023/07/10 23:30:20;;;;;;;4.90;2.60;;;;;;;19.93;79.35;101557.59;4999049;28;20050;-92
2023/07/10 23:32:47;;;;;;;7.57;2.80;;;;;;;19.88;79.38;101542.19;4993804;28;20378;-93
2023/07/10 23:35:13;;;;;;;6.53;2.70;;;;;;;19.81;80.61;101541.78;4980969;28;20058;-92
2023/07/10 23:37:38;;;;;;;6.72;2.97;;;;;;;19.86;80.73;101532.72;4994462;28;20296;-92
2023/07/10 23:40:15;;;;;;;6.53;2.90;;;;;;;19.86;79.36;101533.50;4984932;28;20121;-93
2023/07/10 23:42:42;;;;;;;5.85;2.80;;;;;;;19.78;80.40;101534.22;4979171;28;20030;-93
2023/07/10 23:45:08;;;;;;;5.72;2.38;;;;;;;19.77;80.49;101529.91;4977884;28;20561;-92
2023/07/10 23:47:33;;;;;;;4.97;2.53;;;;;;;19.62;81.37;101531.00;4978101;28;20030;-92
2023/07/10 23:49:58;;;;;;;6.90;3.10;;;;;;;19.62;80.99;101522.84;4976088;28;20471;-93
2023/07/10 23:52:24;;;;;;;7.27;3.30;;;;;;;19.50;81.89;101516.00;4978267;28;20105;-93
2023/07/10 23:54:51;;;;;;;4.00;2.60;;;;;;;19.47;81.70;101511.19;4977471;28;20823;-93
2023/07/10 23:57:17;;;;;;;5.67;2.80;;;;;;;19.45;82.35;101502.53;4976345;28;20025;-92
2023/07/10 23:59:43;;;;;;;9.27;2.93;;;;;;;19.50;82.49;101515.19;4976890;28;20356;-92
